sensor_id;sensor_type;location;lat;lon;timestamp;P1;durP1;ratioP1;P2;durP2;ratioP2
57667;SDS011;43499;52.366;12.912;2023-10-13T00:00:45;12.82;;;5.47;;
57667;SDS011;43499;52.366;12.912;2023-10-13T00:01:48;10.02;;;4.65;;
57667;SDS011;43499;52.366;12.912;2023-10-13T00:02:53;10.40;;;5.53;;
57667;SDS011;43499;52.366;12.912;2023-10-13T00:04:13;13.55;;;5.20;;
57667;SDS011;43499;52.366;12.912;2023-10-13T00:05:33;12.70;;;5.82;;
57667;SDS011;43499;52.366;12.912;2023-10-13T00:06:53;13.20;;;7.18;;
57667;SDS011;43499;52.366;12.912;2023-10-13T00:08:18;13.43;;;5.88;;
57667;SDS011;43499;52.366;12.912;2023-10-13T00:09:40;13.50;;;6.43;;
57667;SDS011;43499;52.366;12.912;2023-10-13T00:10:59;10.27;;;5.25;;
57667;SDS011;43499;52.366;12.912;2023-10-13T00:12:04;10.43;;;5.13;;
57667;SDS011;43499;52.366;12.912;2023-10-13T00:13:15;10.55;;;5.40;;
57667;SDS011;43499;52.366;12.912;2023-10-13T00:14:16;17.95;;;6.43;;
57667;SDS011;43499;52.366;12.912;2023-10-13T00:15:18;15.00;;;5.88;;
57667;SDS011;43499;52.366;12.912;2023-10-13T00:16:22;15.63;;;5.82;;
57667;SDS011;43499;52.366;12.912;2023-10-13T00:17:27;15.63;;;5.72;;
57667;SDS011;43499;52.366;12.912;2023-10-13T00:18:29;15.25;;;5.85;;
57667;SDS011;43499;52.366;12.912;2023-10-13T00:19:35;14.07;;;5.85;;
57667;SDS011;43499;52.366;12.912;2023-10-13T00:20:40;12.23;;;6.05;;
57667;SDS011;43499;52.366;12.912;2023-10-13T00:21:48;14.60;;;5.70;;
57667;SDS011;43499;52.366;12.912;2023-10-13T00:22:49;12.57;;;5.53;;
57667;SDS011;43499;52.366;12.912;2023-10-13T00:23:50;14.68;;;6.38;;
57667;SDS011;43499;52.366;12.912;2023-10-13T00:24:55;15.15;;;6.22;;
57667;SDS011;43499;52.366;12.912;2023-10-13T00:25:59;13.80;;;5.53;;
57667;SDS011;43499;52.366;12.912;2023-10-13T00:27:03;12.48;;;6.22;;
57667;SDS011;43499;52.366;12.912;2023-10-13T00:28:06;15.02;;;5.60;;
57667;SDS011;43499;52.366;12.912;2023-10-13T00:29:10;18.23;;;6.70;;
57667;SDS011;43499;52.366;12.912;2023-10-13T00:30:17;13.23;;;5.47;;
57667;SDS011;43499;52.366;12.912;2023-10-13T00:31:35;15.40;;;5.25;;
57667;SDS011;43499;52.366;12.912;2023-10-13T00:32:37;15.25;;;5.47;;
57667;SDS011;43499;52.366;12.912;2023-10-13T00:33:40;12.20;;;5.18;;
57667;SDS011;43499;52.366;12.912;2023-10-13T00:34:42;17.38;;;6.20;;
57667;SDS011;43499;52.366;12.912;2023-10-13T00:35:43;11.25;;;4.93;;
57667;SDS011;43499;52.366;12.912;2023-10-13T00:36:45;11.88;;;5.97;;
57667;SDS011;43499;52.366;12.912;2023-10-13T00:38:07;14.75;;;4.80;;
57667;SDS011;43499;52.366;12.912;2023-10-13T00:39:14;11.90;;;5.32;;
57667;SDS011;43499;52.366;12.912;2023-10-13T00:40:16;16.80;;;5.85;;
57667;SDS011;43499;52.366;12.912;2023-10-13T00:41:37;12.93;;;5.57;;
57667;SDS011;43499;52.366;12.912;2023-10-13T00:42:53;11.80;;;5.38;;
57667;SDS011;43499;52.366;12.912;2023-10-13T00:43:54;18.60;;;5.45;;
57667;SDS011;43499;52.366;12.912;2023-10-13T00:45:05;14.15;;;5.07;;
57667;SDS011;43499;52.366;12.912;2023-10-13T00:46:06;14.38;;;5.07;;
57667;SDS011;43499;52.366;12.912;2023-10-13T00:47:09;15.07;;;4.97;;
57667;SDS011;43499;52.366;12.912;2023-10-13T00:48:11;13.90;;;5.57;;
57667;SDS011;43499;52.366;12.912;2023-10-13T00:49:13;13.95;;;5.60;;
57667;SDS011;43499;52.366;12.912;2023-10-13T00:50:16;9.80;;;4.78;;
57667;SDS011;43499;52.366;12.912;2023-10-13T00:51:18;14.63;;;5.30;;
57667;SDS011;43499;52.366;12.912;2023-10-13T00:52:38;14.38;;;5.30;;
57667;SDS011;43499;52.366;12.912;2023-10-13T00:53:42;13.20;;;4.57;;
57667;SDS011;43499;52.366;12.912;2023-10-13T00:54:45;11.35;;;4.82;;
57667;SDS011;43499;52.366;12.912;2023-10-13T00:55:49;9.93;;;4.93;;
57667;SDS011;43499;52.366;12.912;2023-10-13T00:56:50;12.70;;;4.80;;
57667;SDS011;43499;52.366;12.912;2023-10-13T00:58:05;12.00;;;4.90;;
57667;SDS011;43499;52.366;12.912;2023-10-13T00:59:08;12.25;;;5.05;;
57667;SDS011;43499;52.366;12.912;2023-10-13T01:00:10;16.20;;;5.50;;
57667;SDS011;43499;52.366;12.912;2023-10-13T01:01:25;8.73;;;4.78;;
57667;SDS011;43499;52.366;12.912;2023-10-13T01:02:30;13.20;;;4.60;;
57667;SDS011;43499;52.366;12.912;2023-10-13T01:03:41;12.40;;;5.68;;
57667;SDS011;43499;52.366;12.912;2023-10-13T01:04:42;10.88;;;4.72;;
57667;SDS011;43499;52.366;12.912;2023-10-13T01:05:43;9.43;;;4.35;;
57667;SDS011;43499;52.366;12.912;2023-10-13T01:06:44;12.43;;;4.80;;
57667;SDS011;43499;52.366;12.912;2023-10-13T01:07:47;14.20;;;5.00;;
57667;SDS011;43499;52.366;12.912;2023-10-13T01:10:17;9.57;;;4.28;;
57667;SDS011;43499;52.366;12.912;2023-10-13T01:11:18;11.18;;;4.53;;
57667;SDS011;43499;52.366;12.912;2023-10-13T01:12:20;10.07;;;4.43;;
57667;SDS011;43499;52.366;12.912;2023-10-13T01:13:24;11.70;;;4.82;;
57667;SDS011;43499;52.366;12.912;2023-10-13T01:14:25;11.07;;;5.30;;
57667;SDS011;43499;52.366;12.912;2023-10-13T01:15:30;10.85;;;4.97;;
57667;SDS011;43499;52.366;12.912;2023-10-13T01:16:33;11.73;;;4.50;;
57667;SDS011;43499;52.366;12.912;2023-10-13T01:17:36;9.27;;;4.05;;
57667;SDS011;43499;52.366;12.912;2023-10-13T01:18:37;10.90;;;4.43;;
57667;SDS011;43499;52.366;12.912;2023-10-13T01:19:48;13.07;;;4.07;;
57667;SDS011;43499;52.366;12.912;2023-10-13T01:20:49;11.57;;;3.75;;
57667;SDS011;43499;52.366;12.912;2023-10-13T01:21:53;10.18;;;4.00;;
57667;SDS011;43499;52.366;12.912;2023-10-13T01:23:07;10.25;;;4.03;;
57667;SDS011;43499;52.366;12.912;2023-10-13T01:24:18;11.27;;;4.15;;
57667;SDS011;43499;52.366;12.912;2023-10-13T01:25:24;7.70;;;4.03;;
57667;SDS011;43499;52.366;12.912;2023-10-13T01:26:28;9.23;;;3.70;;
57667;SDS011;43499;52.366;12.912;2023-10-13T01:27:29;9.10;;;3.78;;
57667;SDS011;43499;52.366;12.912;2023-10-13T01:28:30;9.23;;;3.97;;
57667;SDS011;43499;52.366;12.912;2023-10-13T01:29:45;8.75;;;3.40;;
57667;SDS011;43499;52.366;12.912;2023-10-13T01:30:53;7.15;;;3.42;;
57667;SDS011;43499;52.366;12.912;2023-10-13T01:31:54;9.20;;;3.53;;
57667;SDS011;43499;52.366;12.912;2023-10-13T01:32:55;10.90;;;3.28;;
57667;SDS011;43499;52.366;12.912;2023-10-13T01:34:01;8.07;;;3.40;;
57667;SDS011;43499;52.366;12.912;2023-10-13T01:35:03;6.10;;;3.10;;
57667;SDS011;43499;52.366;12.912;2023-10-13T01:36:06;8.07;;;3.53;;
57667;SDS011;43499;52.366;12.912;2023-10-13T01:37:09;9.32;;;3.63;;
57667;SDS011;43499;52.366;12.912;2023-10-13T01:38:11;12.20;;;3.55;;
57667;SDS011;43499;52.366;12.912;2023-10-13T01:39:12;8.10;;;3.65;;
57667;SDS011;43499;52.366;12.912;2023-10-13T01:40:17;9.35;;;3.78;;
57667;SDS011;43499;52.366;12.912;2023-10-13T01:41:21;6.32;;;3.05;;
57667;SDS011;43499;52.366;12.912;2023-10-13T01:42:23;8.13;;;4.10;;
57667;SDS011;43499;52.366;12.912;2023-10-13T01:43:25;11.27;;;3.95;;
57667;SDS011;43499;52.366;12.912;2023-10-13T01:44:26;13.85;;;3.78;;
57667;SDS011;43499;52.366;12.912;2023-10-13T01:45:33;6.55;;;3.28;;
57667;SDS011;43499;52.366;12.912;2023-10-13T01:46:35;10.40;;;4.30;;
57667;SDS011;43499;52.366;12.912;2023-10-13T01:47:37;9.25;;;3.70;;
57667;SDS011;43499;52.366;12.912;2023-10-13T01:48:40;7.60;;;3.95;;
57667;SDS011;43499;52.366;12.912;2023-10-13T01:49:44;9.93;;;3.95;;
57667;SDS011;43499;52.366;12.912;2023-10-13T01:50:48;13.07;;;3.83;;
57667;SDS011;43499;52.366;12.912;2023-10-13T01:52:57;9.80;;;3.70;;
57667;SDS011;43499;52.366;12.912;2023-10-13T01:54:13;8.25;;;3.00;;
57667;SDS011;43499;52.366;12.912;2023-10-13T01:55:16;7.40;;;3.88;;
57667;SDS011;43499;52.366;12.912;2023-10-13T01:56:18;8.88;;;3.53;;
57667;SDS011;43499;52.366;12.912;2023-10-13T01:57:23;11.88;;;4.18;;
57667;SDS011;43499;52.366;12.912;2023-10-13T01:58:25;12.88;;;4.38;;
57667;SDS011;43499;52.366;12.912;2023-10-13T01:59:30;8.77;;;4.07;;
57667;SDS011;43499;52.366;12.912;2023-10-13T02:00:32;9.60;;;4.13;;
57667;SDS011;43499;52.366;12.912;2023-10-13T02:01:34;8.27;;;3.65;;
57667;SDS011;43499;52.366;12.912;2023-10-13T02:02:35;9.32;;;3.75;;
57667;SDS011;43499;52.366;12.912;2023-10-13T02:03:39;10.00;;;4.45;;
57667;SDS011;43499;52.366;12.912;2023-10-13T02:04:48;11.80;;;3.92;;
57667;SDS011;43499;52.366;12.912;2023-10-13T02:05:58;11.18;;;3.80;;
57667;SDS011;43499;52.366;12.912;2023-10-13T02:07:05;10.60;;;3.92;;
57667;SDS011;43499;52.366;12.912;2023-10-13T02:08:09;12.93;;;4.57;;
57667;SDS011;43499;52.366;12.912;2023-10-13T02:09:18;8.88;;;3.97;;
57667;SDS011;43499;52.366;12.912;2023-10-13T02:10:30;5.28;;;3.45;;
57667;SDS011;43499;52.366;12.912;2023-10-13T02:11:32;8.40;;;4.45;;
57667;SDS011;43499;52.366;12.912;2023-10-13T02:12:33;7.88;;;4.10;;
57667;SDS011;43499;52.366;12.912;2023-10-13T02:13:38;7.43;;;3.55;;
57667;SDS011;43499;52.366;12.912;2023-10-13T02:14:49;10.27;;;4.40;;
57667;SDS011;43499;52.366;12.912;2023-10-13T02:15:53;9.32;;;3.92;;
57667;SDS011;43499;52.366;12.912;2023-10-13T02:16:57;10.57;;;4.97;;
57667;SDS011;43499;52.366;12.912;2023-10-13T02:18:14;11.30;;;4.07;;
57667;SDS011;43499;52.366;12.912;2023-10-13T02:19:37;6.03;;;3.20;;
57667;SDS011;43499;52.366;12.912;2023-10-13T02:20:41;7.78;;;3.05;;
57667;SDS011;43499;52.366;12.912;2023-10-13T02:21:45;10.10;;;4.03;;
57667;SDS011;43499;52.366;12.912;2023-10-13T02:22:46;13.90;;;4.20;;
57667;SDS011;43499;52.366;12.912;2023-10-13T02:23:50;8.80;;;3.85;;
57667;SDS011;43499;52.366;12.912;2023-10-13T02:25:11;10.20;;;4.22;;
57667;SDS011;43499;52.366;12.912;2023-10-13T02:26:20;11.07;;;4.82;;
57667;SDS011;43499;52.366;12.912;2023-10-13T02:27:34;10.15;;;4.15;;
57667;SDS011;43499;52.366;12.912;2023-10-13T02:28:42;8.73;;;4.25;;
57667;SDS011;43499;52.366;12.912;2023-10-13T02:29:52;10.68;;;3.58;;
57667;SDS011;43499;52.366;12.912;2023-10-13T02:31:01;7.97;;;3.40;;
57667;SDS011;43499;52.366;12.912;2023-10-13T02:32:04;9.57;;;4.13;;
57667;SDS011;43499;52.366;12.912;2023-10-13T02:34:07;7.32;;;3.40;;
57667;SDS011;43499;52.366;12.912;2023-10-13T02:35:09;10.02;;;3.50;;
57667;SDS011;43499;52.366;12.912;2023-10-13T02:36:16;8.98;;;3.92;;
57667;SDS011;43499;52.366;12.912;2023-10-13T02:37:24;7.22;;;3.65;;
57667;SDS011;43499;52.366;12.912;2023-10-13T02:38:25;13.70;;;4.25;;
57667;SDS011;43499;52.366;12.912;2023-10-13T02:39:43;9.77;;;3.97;;
57667;SDS011;43499;52.366;12.912;2023-10-13T02:40:44;10.15;;;4.20;;
57667;SDS011;43499;52.366;12.912;2023-10-13T02:41:45;11.43;;;3.90;;
57667;SDS011;43499;52.366;12.912;2023-10-13T02:42:49;9.32;;;3.78;;
57667;SDS011;43499;52.366;12.912;2023-10-13T02:43:50;10.48;;;3.90;;
57667;SDS011;43499;52.366;12.912;2023-10-13T02:44:52;7.13;;;4.38;;
57667;SDS011;43499;52.366;12.912;2023-10-13T02:45:58;13.73;;;4.43;;
57667;SDS011;43499;52.366;12.912;2023-10-13T02:47:00;10.40;;;3.63;;
57667;SDS011;43499;52.366;12.912;2023-10-13T02:48:01;23.73;;;4.13;;
57667;SDS011;43499;52.366;12.912;2023-10-13T02:49:23;10.40;;;4.70;;
57667;SDS011;43499;52.366;12.912;2023-10-13T02:50:27;10.23;;;4.28;;
57667;SDS011;43499;52.366;12.912;2023-10-13T02:51:34;9.85;;;4.15;;
57667;SDS011;43499;52.366;12.912;2023-10-13T02:52:38;12.00;;;4.28;;
57667;SDS011;43499;52.366;12.912;2023-10-13T02:53:46;10.15;;;4.90;;
57667;SDS011;43499;52.366;12.912;2023-10-13T02:55:52;10.73;;;4.00;;
57667;SDS011;43499;52.366;12.912;2023-10-13T02:56:54;10.48;;;4.15;;
57667;SDS011;43499;52.366;12.912;2023-10-13T02:57:58;10.38;;;5.30;;
57667;SDS011;43499;52.366;12.912;2023-10-13T03:01:13;7.63;;;3.55;;
57667;SDS011;43499;52.366;12.912;2023-10-13T03:02:21;9.20;;;3.80;;
57667;SDS011;43499;52.366;12.912;2023-10-13T03:03:26;16.80;;;4.90;;
57667;SDS011;43499;52.366;12.912;2023-10-13T03:04:30;12.82;;;4.97;;
57667;SDS011;43499;52.366;12.912;2023-10-13T03:05:34;11.27;;;4.85;;
57667;SDS011;43499;52.366;12.912;2023-10-13T03:06:36;12.80;;;5.40;;
57667;SDS011;43499;52.366;12.912;2023-10-13T03:07:40;10.75;;;4.72;;
57667;SDS011;43499;52.366;12.912;2023-10-13T03:08:45;10.55;;;4.63;;
57667;SDS011;43499;52.366;12.912;2023-10-13T03:09:47;12.63;;;4.93;;
57667;SDS011;43499;52.366;12.912;2023-10-13T03:10:56;11.63;;;4.88;;
57667;SDS011;43499;52.366;12.912;2023-10-13T03:11:57;12.73;;;5.95;;
57667;SDS011;43499;52.366;12.912;2023-10-13T03:12:58;11.88;;;5.43;;
57667;SDS011;43499;52.366;12.912;2023-10-13T03:15:07;12.07;;;4.70;;
57667;SDS011;43499;52.366;12.912;2023-10-13T03:16:18;10.68;;;4.47;;
57667;SDS011;43499;52.366;12.912;2023-10-13T03:17:22;13.80;;;4.72;;
57667;SDS011;43499;52.366;12.912;2023-10-13T03:18:34;9.85;;;4.50;;
57667;SDS011;43499;52.366;12.912;2023-10-13T03:19:37;14.55;;;4.78;;
57667;SDS011;43499;52.366;12.912;2023-10-13T03:20:39;14.10;;;4.97;;
57667;SDS011;43499;52.366;12.912;2023-10-13T03:21:42;9.73;;;4.88;;
57667;SDS011;43499;52.366;12.912;2023-10-13T03:22:45;15.10;;;5.78;;
57667;SDS011;43499;52.366;12.912;2023-10-13T03:23:46;10.07;;;4.68;;
57667;SDS011;43499;52.366;12.912;2023-10-13T03:25:49;15.27;;;5.47;;
57667;SDS011;43499;52.366;12.912;2023-10-13T03:26:52;9.82;;;5.22;;
57667;SDS011;43499;52.366;12.912;2023-10-13T03:27:53;11.93;;;5.47;;
57667;SDS011;43499;52.366;12.912;2023-10-13T03:28:56;13.80;;;5.28;;
57667;SDS011;43499;52.366;12.912;2023-10-13T03:29:58;10.63;;;4.50;;
57667;SDS011;43499;52.366;12.912;2023-10-13T03:31:01;11.10;;;5.50;;
57667;SDS011;43499;52.366;12.912;2023-10-13T03:32:03;12.23;;;4.53;;
57667;SDS011;43499;52.366;12.912;2023-10-13T03:33:12;10.93;;;5.13;;
57667;SDS011;43499;52.366;12.912;2023-10-13T03:34:14;9.90;;;4.65;;
57667;SDS011;43499;52.366;12.912;2023-10-13T03:35:16;10.18;;;4.72;;
57667;SDS011;43499;52.366;12.912;2023-10-13T03:36:38;14.88;;;5.68;;
57667;SDS011;43499;52.366;12.912;2023-10-13T03:37:58;14.77;;;4.72;;
57667;SDS011;43499;52.366;12.912;2023-10-13T03:38:59;18.50;;;5.93;;
57667;SDS011;43499;52.366;12.912;2023-10-13T03:40:00;13.85;;;5.50;;
57667;SDS011;43499;52.366;12.912;2023-10-13T03:41:01;15.73;;;5.38;;
57667;SDS011;43499;52.366;12.912;2023-10-13T03:42:13;11.85;;;5.35;;
57667;SDS011;43499;52.366;12.912;2023-10-13T03:43:19;13.48;;;6.35;;
57667;SDS011;43499;52.366;12.912;2023-10-13T03:44:22;9.68;;;5.05;;
57667;SDS011;43499;52.366;12.912;2023-10-13T03:45:24;12.23;;;5.43;;
57667;SDS011;43499;52.366;12.912;2023-10-13T03:46:25;10.52;;;5.05;;
57667;SDS011;43499;52.366;12.912;2023-10-13T03:47:27;17.85;;;6.55;;
57667;SDS011;43499;52.366;12.912;2023-10-13T03:48:33;18.73;;;6.32;;
57667;SDS011;43499;52.366;12.912;2023-10-13T03:49:41;16.70;;;5.75;;
57667;SDS011;43499;52.366;12.912;2023-10-13T03:50:42;12.38;;;5.15;;
57667;SDS011;43499;52.366;12.912;2023-10-13T03:52:02;11.73;;;5.50;;
57667;SDS011;43499;52.366;12.912;2023-10-13T03:53:06;11.38;;;4.50;;
57667;SDS011;43499;52.366;12.912;2023-10-13T03:54:14;13.80;;;5.13;;
57667;SDS011;43499;52.366;12.912;2023-10-13T03:55:17;15.25;;;5.63;;
57667;SDS011;43499;52.366;12.912;2023-10-13T03:56:19;14.13;;;5.00;;
57667;SDS011;43499;52.366;12.912;2023-10-13T03:57:27;16.80;;;5.35;;
57667;SDS011;43499;52.366;12.912;2023-10-13T03:58:28;15.55;;;6.65;;
57667;SDS011;43499;52.366;12.912;2023-10-13T03:59:30;16.77;;;5.78;;
57667;SDS011;43499;52.366;12.912;2023-10-13T04:00:36;17.73;;;6.88;;
57667;SDS011;43499;52.366;12.912;2023-10-13T04:01:37;17.67;;;7.93;;
57667;SDS011;43499;52.366;12.912;2023-10-13T04:02:44;22.45;;;7.93;;
57667;SDS011;43499;52.366;12.912;2023-10-13T04:03:53;19.63;;;8.48;;
57667;SDS011;43499;52.366;12.912;2023-10-13T04:04:57;21.30;;;8.80;;
57667;SDS011;43499;52.366;12.912;2023-10-13T04:06:08;18.27;;;7.65;;
57667;SDS011;43499;52.366;12.912;2023-10-13T04:07:16;16.90;;;7.63;;
57667;SDS011;43499;52.366;12.912;2023-10-13T04:08:37;17.13;;;7.47;;
57667;SDS011;43499;52.366;12.912;2023-10-13T04:10:11;15.55;;;6.40;;
57667;SDS011;43499;52.366;12.912;2023-10-13T04:11:30;19.60;;;6.53;;
57667;SDS011;43499;52.366;12.912;2023-10-13T04:12:51;13.68;;;5.93;;
57667;SDS011;43499;52.366;12.912;2023-10-13T04:14:11;16.10;;;6.65;;
57667;SDS011;43499;52.366;12.912;2023-10-13T04:15:44;17.42;;;6.40;;
57667;SDS011;43499;52.366;12.912;2023-10-13T04:17:24;13.57;;;5.38;;
57667;SDS011;43499;52.366;12.912;2023-10-13T04:18:28;11.65;;;4.80;;
57667;SDS011;43499;52.366;12.912;2023-10-13T04:21:08;8.50;;;4.45;;
57667;SDS011;43499;52.366;12.912;2023-10-13T04:22:19;16.45;;;5.53;;
57667;SDS011;43499;52.366;12.912;2023-10-13T04:23:21;12.45;;;5.30;;
57667;SDS011;43499;52.366;12.912;2023-10-13T04:24:27;15.63;;;5.70;;
57667;SDS011;43499;52.366;12.912;2023-10-13T04:25:51;12.57;;;5.47;;
57667;SDS011;43499;52.366;12.912;2023-10-13T04:27:05;15.15;;;5.88;;
57667;SDS011;43499;52.366;12.912;2023-10-13T04:29:14;13.93;;;5.13;;
57667;SDS011;43499;52.366;12.912;2023-10-13T04:30:28;13.80;;;6.00;;
57667;SDS011;43499;52.366;12.912;2023-10-13T04:31:44;14.20;;;5.97;;
57667;SDS011;43499;52.366;12.912;2023-10-13T04:33:00;18.30;;;5.82;;
57667;SDS011;43499;52.366;12.912;2023-10-13T04:34:28;13.10;;;5.75;;
57667;SDS011;43499;52.366;12.912;2023-10-13T04:35:38;13.70;;;5.60;;
57667;SDS011;43499;52.366;12.912;2023-10-13T04:36:48;16.70;;;5.47;;
57667;SDS011;43499;52.366;12.912;2023-10-13T04:37:56;13.60;;;5.85;;
57667;SDS011;43499;52.366;12.912;2023-10-13T04:39:02;15.57;;;5.97;;
57667;SDS011;43499;52.366;12.912;2023-10-13T04:40:04;9.52;;;5.78;;
57667;SDS011;43499;52.366;12.912;2023-10-13T04:42:23;15.18;;;6.70;;
57667;SDS011;43499;52.366;12.912;2023-10-13T04:43:42;15.55;;;6.05;;
57667;SDS011;43499;52.366;12.912;2023-10-13T04:44:56;14.95;;;5.68;;
57667;SDS011;43499;52.366;12.912;2023-10-13T04:46:01;22.48;;;6.70;;
57667;SDS011;43499;52.366;12.912;2023-10-13T04:47:21;16.58;;;5.18;;
57667;SDS011;43499;52.366;12.912;2023-10-13T04:48:22;8.90;;;5.18;;
57667;SDS011;43499;52.366;12.912;2023-10-13T04:49:23;15.95;;;5.38;;
57667;SDS011;43499;52.366;12.912;2023-10-13T04:50:29;13.13;;;6.07;;
57667;SDS011;43499;52.366;12.912;2023-10-13T04:51:36;13.88;;;6.30;;
57667;SDS011;43499;52.366;12.912;2023-10-13T04:52:56;13.82;;;6.32;;
57667;SDS011;43499;52.366;12.912;2023-10-13T04:54:04;11.07;;;5.93;;
57667;SDS011;43499;52.366;12.912;2023-10-13T04:55:12;13.13;;;7.20;;
57667;SDS011;43499;52.366;12.912;2023-10-13T04:56:39;16.90;;;5.90;;
57667;SDS011;43499;52.366;12.912;2023-10-13T04:57:43;13.98;;;6.00;;
57667;SDS011;43499;52.366;12.912;2023-10-13T04:59:22;20.80;;;7.28;;
57667;SDS011;43499;52.366;12.912;2023-10-13T05:00:44;14.15;;;5.22;;
57667;SDS011;43499;52.366;12.912;2023-10-13T05:02:17;12.73;;;5.32;;
57667;SDS011;43499;52.366;12.912;2023-10-13T05:03:36;10.77;;;5.30;;
57667;SDS011;43499;52.366;12.912;2023-10-13T05:04:55;12.23;;;5.53;;
57667;SDS011;43499;52.366;12.912;2023-10-13T05:06:15;15.60;;;5.40;;
57667;SDS011;43499;52.366;12.912;2023-10-13T05:07:35;11.35;;;3.95;;
57667;SDS011;43499;52.366;12.912;2023-10-13T05:10:33;9.50;;;5.15;;
57667;SDS011;43499;52.366;12.912;2023-10-13T05:12:06;13.13;;;5.55;;
57667;SDS011;43499;52.366;12.912;2023-10-13T05:13:45;9.48;;;4.45;;
57667;SDS011;43499;52.366;12.912;2023-10-13T05:15:05;21.90;;;5.47;;
57667;SDS011;43499;52.366;12.912;2023-10-13T05:16:25;12.68;;;4.57;;
57667;SDS011;43499;52.366;12.912;2023-10-13T05:17:45;10.00;;;4.97;;
57667;SDS011;43499;52.366;12.912;2023-10-13T05:19:04;8.60;;;4.13;;
57667;SDS011;43499;52.366;12.912;2023-10-13T05:20:25;10.60;;;4.53;;
57667;SDS011;43499;52.366;12.912;2023-10-13T05:21:45;12.02;;;4.25;;
57667;SDS011;43499;52.366;12.912;2023-10-13T05:23:05;10.82;;;4.82;;
57667;SDS011;43499;52.366;12.912;2023-10-13T05:24:25;7.97;;;3.95;;
57667;SDS011;43499;52.366;12.912;2023-10-13T05:25:44;13.07;;;4.47;;
57667;SDS011;43499;52.366;12.912;2023-10-13T05:27:04;11.73;;;5.53;;
57667;SDS011;43499;52.366;12.912;2023-10-13T05:28:42;9.90;;;4.82;;
57667;SDS011;43499;52.366;12.912;2023-10-13T05:30:20;10.02;;;4.78;;
57667;SDS011;43499;52.366;12.912;2023-10-13T05:31:59;10.32;;;4.65;;
57667;SDS011;43499;52.366;12.912;2023-10-13T05:33:19;10.65;;;4.50;;
57667;SDS011;43499;52.366;12.912;2023-10-13T05:34:58;15.52;;;4.70;;
57667;SDS011;43499;52.366;12.912;2023-10-13T05:36:36;9.70;;;4.65;;
57667;SDS011;43499;52.366;12.912;2023-10-13T05:38:14;13.57;;;4.65;;
57667;SDS011;43499;52.366;12.912;2023-10-13T05:39:53;8.30;;;4.25;;
57667;SDS011;43499;52.366;12.912;2023-10-13T05:41:13;9.05;;;4.03;;
57667;SDS011;43499;52.366;12.912;2023-10-13T05:42:32;12.00;;;4.68;;
57667;SDS011;43499;52.366;12.912;2023-10-13T05:43:52;11.70;;;4.68;;
57667;SDS011;43499;52.366;12.912;2023-10-13T05:45:12;9.13;;;4.78;;
57667;SDS011;43499;52.366;12.912;2023-10-13T05:46:19;13.32;;;7.05;;
57667;SDS011;43499;52.366;12.912;2023-10-13T05:47:26;14.93;;;5.40;;
57667;SDS011;43499;52.366;12.912;2023-10-13T05:48:42;13.73;;;5.32;;
57667;SDS011;43499;52.366;12.912;2023-10-13T05:49:58;9.80;;;5.05;;
57667;SDS011;43499;52.366;12.912;2023-10-13T05:51:13;11.98;;;4.85;;
57667;SDS011;43499;52.366;12.912;2023-10-13T05:52:33;10.80;;;5.25;;
57667;SDS011;43499;52.366;12.912;2023-10-13T05:53:53;10.80;;;5.35;;
57667;SDS011;43499;52.366;12.912;2023-10-13T05:55:13;11.95;;;5.05;;
57667;SDS011;43499;52.366;12.912;2023-10-13T05:56:33;10.90;;;4.82;;
57667;SDS011;43499;52.366;12.912;2023-10-13T05:57:53;12.40;;;5.13;;
57667;SDS011;43499;52.366;12.912;2023-10-13T05:59:12;13.32;;;5.03;;
57667;SDS011;43499;52.366;12.912;2023-10-13T06:00:37;11.80;;;5.47;;
57667;SDS011;43499;52.366;12.912;2023-10-13T06:01:57;10.98;;;4.57;;
57667;SDS011;43499;52.366;12.912;2023-10-13T06:03:17;8.55;;;5.22;;
57667;SDS011;43499;52.366;12.912;2023-10-13T06:04:37;12.73;;;5.70;;
57667;SDS011;43499;52.366;12.912;2023-10-13T06:05:56;12.05;;;6.10;;
57667;SDS011;43499;52.366;12.912;2023-10-13T06:07:16;8.25;;;4.25;;
57667;SDS011;43499;52.366;12.912;2023-10-13T06:08:36;11.32;;;4.30;;
57667;SDS011;43499;52.366;12.912;2023-10-13T06:09:55;9.45;;;4.38;;
57667;SDS011;43499;52.366;12.912;2023-10-13T06:11:15;11.15;;;5.05;;
57667;SDS011;43499;52.366;12.912;2023-10-13T06:12:35;10.57;;;5.50;;
57667;SDS011;43499;52.366;12.912;2023-10-13T06:13:55;10.25;;;4.22;;
57667;SDS011;43499;52.366;12.912;2023-10-13T06:15:14;9.38;;;4.65;;
57667;SDS011;43499;52.366;12.912;2023-10-13T06:16:34;9.15;;;4.78;;
57667;SDS011;43499;52.366;12.912;2023-10-13T06:17:54;11.13;;;5.05;;
57667;SDS011;43499;52.366;12.912;2023-10-13T06:19:14;10.35;;;4.18;;
57667;SDS011;43499;52.366;12.912;2023-10-13T06:20:38;12.25;;;4.50;;
57667;SDS011;43499;52.366;12.912;2023-10-13T06:21:58;6.57;;;3.72;;
57667;SDS011;43499;52.366;12.912;2023-10-13T06:23:18;13.98;;;5.10;;
57667;SDS011;43499;52.366;12.912;2023-10-13T06:24:38;8.85;;;4.40;;
57667;SDS011;43499;52.366;12.912;2023-10-13T06:25:57;9.45;;;3.58;;
57667;SDS011;43499;52.366;12.912;2023-10-13T06:27:17;15.65;;;4.57;;
57667;SDS011;43499;52.366;12.912;2023-10-13T06:28:37;11.63;;;4.03;;
57667;SDS011;43499;52.366;12.912;2023-10-13T06:29:41;10.82;;;4.50;;
57667;SDS011;43499;52.366;12.912;2023-10-13T06:30:42;6.45;;;3.47;;
57667;SDS011;43499;52.366;12.912;2023-10-13T06:31:53;7.68;;;3.78;;
57667;SDS011;43499;52.366;12.912;2023-10-13T06:32:57;8.88;;;4.45;;
57667;SDS011;43499;52.366;12.912;2023-10-13T06:33:59;11.50;;;4.57;;
57667;SDS011;43499;52.366;12.912;2023-10-13T06:35:04;10.38;;;5.13;;
57667;SDS011;43499;52.366;12.912;2023-10-13T06:36:06;9.32;;;3.78;;
57667;SDS011;43499;52.366;12.912;2023-10-13T06:37:16;9.38;;;4.00;;
57667;SDS011;43499;52.366;12.912;2023-10-13T06:38:24;11.80;;;4.45;;
57667;SDS011;43499;52.366;12.912;2023-10-13T06:39:25;8.15;;;4.65;;
57667;SDS011;43499;52.366;12.912;2023-10-13T06:40:38;9.45;;;4.28;;
57667;SDS011;43499;52.366;12.912;2023-10-13T06:41:42;7.10;;;3.85;;
57667;SDS011;43499;52.366;12.912;2023-10-13T06:42:44;10.88;;;4.45;;
57667;SDS011;43499;52.366;12.912;2023-10-13T06:43:45;11.75;;;4.68;;
57667;SDS011;43499;52.366;12.912;2023-10-13T06:44:46;9.18;;;4.28;;
57667;SDS011;43499;52.366;12.912;2023-10-13T06:45:48;5.88;;;3.30;;
57667;SDS011;43499;52.366;12.912;2023-10-13T06:47:01;5.68;;;3.55;;
57667;SDS011;43499;52.366;12.912;2023-10-13T06:48:05;10.85;;;3.35;;
57667;SDS011;43499;52.366;12.912;2023-10-13T06:49:06;9.32;;;3.58;;
57667;SDS011;43499;52.366;12.912;2023-10-13T06:50:14;7.85;;;4.10;;
57667;SDS011;43499;52.366;12.912;2023-10-13T06:51:16;8.40;;;3.63;;
57667;SDS011;43499;52.366;12.912;2023-10-13T06:52:27;6.65;;;3.85;;
57667;SDS011;43499;52.366;12.912;2023-10-13T06:53:30;11.77;;;3.47;;
57667;SDS011;43499;52.366;12.912;2023-10-13T06:54:37;6.78;;;3.38;;
57667;SDS011;43499;52.366;12.912;2023-10-13T06:55:40;9.07;;;3.28;;
57667;SDS011;43499;52.366;12.912;2023-10-13T06:56:41;8.32;;;3.88;;
57667;SDS011;43499;52.366;12.912;2023-10-13T06:57:42;12.82;;;3.78;;
57667;SDS011;43499;52.366;12.912;2023-10-13T06:58:47;7.70;;;3.33;;
57667;SDS011;43499;52.366;12.912;2023-10-13T06:59:49;7.82;;;3.88;;
57667;SDS011;43499;52.366;12.912;2023-10-13T07:00:52;8.90;;;3.58;;
57667;SDS011;43499;52.366;12.912;2023-10-13T07:01:59;8.95;;;3.78;;
57667;SDS011;43499;52.366;12.912;2023-10-13T07:03:06;8.73;;;3.53;;